createdAt,value
2019-03-13T00:01:32.383Z,95195.41
2019-03-13T00:03:58.870Z,95224.39
2019-03-13T00:06:25.403Z,95245.70
2019-03-13T00:08:51.837Z,95245.70
2019-03-13T00:11:18.681Z,95254.08
2019-03-13T00:13:45.319Z,95275.87
2019-03-13T00:16:11.854Z,95273.59
2019-03-13T00:18:38.287Z,95267.13
2019-03-13T00:21:04.818Z,95290.48
2019-03-13T00:23:31.361Z,95303.03
2019-03-13T00:25:57.906Z,95306.07
2019-03-13T00:28:24.434Z,95302.83
2019-03-13T00:30:50.968Z,95317.95
2019-03-13T00:33:17.403Z,95314.77
2019-03-13T00:35:43.948Z,95336.13
2019-03-13T00:38:10.374Z,95335.25
2019-03-13T00:40:36.804Z,95353.73
2019-03-13T00:43:03.546Z,95346.27
2019-03-13T00:45:30.184Z,95357.86
2019-03-13T00:47:56.617Z,95373.51
2019-03-13T00:50:25.304Z,95393.88
2019-03-13T00:52:51.737Z,95399.67
2019-03-13T00:55:18.376Z,95403.48
2019-03-13T00:57:44.810Z,95430.34
2019-03-13T01:00:13.369Z,95442.50
2019-03-13T01:02:41.749Z,95430.06
2019-03-13T01:05:16.947Z,95447.03
2019-03-13T01:07:44.551Z,95454.24
2019-03-13T01:10:11.351Z,95469.28
2019-03-13T01:12:38.903Z,95466.89
2019-03-13T01:15:07.529Z,95485.07
2019-03-13T01:17:33.991Z,95495.05
2019-03-13T01:20:00.426Z,95504.11
2019-03-13T01:22:27.165Z,95516.24
2019-03-13T01:24:53.702Z,95509.52
2019-03-13T01:27:20.141Z,95517.54
2019-03-13T01:29:46.773Z,95521.13
2019-03-13T01:32:21.195Z,95528.00
2019-03-13T01:34:55.411Z,95525.85
2019-03-13T01:37:21.845Z,95513.03
2019-03-13T01:39:48.379Z,95516.84
2019-03-13T01:42:15.019Z,95515.55
2019-03-13T01:44:41.964Z,95505.77
2019-03-13T01:47:08.398Z,95520.95
2019-03-13T01:49:34.830Z,95522.24
2019-03-13T01:52:01.265Z,95521.20
2019-03-13T01:54:27.701Z,95518.48
2019-03-13T01:56:54.131Z,95527.70
2019-03-13T01:59:20.668Z,95530.11
2019-03-13T02:01:47.103Z,95542.81
2019-03-13T02:04:13.636Z,95543.45
2019-03-13T02:06:40.172Z,95533.44
2019-03-13T02:09:08.602Z,95542.77
2019-03-13T02:11:35.091Z,95553.52
2019-03-13T02:14:01.684Z,95549.44
2019-03-13T02:16:28.363Z,95555.45
2019-03-13T02:18:54.798Z,95563.17
2019-03-13T02:21:21.232Z,95560.13
2019-03-13T02:23:47.768Z,95550.44
2019-03-13T02:26:14.408Z,95569.05
2019-03-13T02:28:40.947Z,95576.93
2019-03-13T02:31:07.759Z,95569.54
2019-03-13T02:33:37.602Z,95570.34
2019-03-13T02:36:04.137Z,95567.11
2019-03-13T02:38:30.575Z,95577.72
2019-03-13T02:40:57.146Z,95569.00
2019-03-13T02:43:23.741Z,95567.11
2019-03-13T02:45:50.380Z,95569.25
2019-03-13T02:48:16.825Z,95558.30
2019-03-13T02:50:43.248Z,95558.88
2019-03-13T02:53:09.987Z,95560.67
2019-03-13T02:55:36.523Z,95561.75
2019-03-13T02:58:02.962Z,95569.57
2019-03-13T03:00:43.113Z,95576.97
2019-03-13T03:03:26.546Z,95577.88
2019-03-13T03:05:53.083Z,95588.93
2019-03-13T03:08:19.513Z,95595.16
2019-03-13T03:10:45.980Z,95602.28
2019-03-13T03:13:12.495Z,95611.63
2019-03-13T03:15:39.123Z,95611.48
2019-03-13T03:18:05.759Z,95611.80
2019-03-13T03:20:32.193Z,95622.05
2019-03-13T03:22:58.635Z,95623.23
2019-03-13T03:25:25.166Z,95635.28
2019-03-13T03:27:51.596Z,95625.61
2019-03-13T03:30:21.248Z,95623.45
2019-03-13T03:32:47.846Z,95622.88
2019-03-13T03:35:14.380Z,95622.82
2019-03-13T03:37:40.950Z,95618.52
2019-03-13T03:40:10.834Z,95617.44
2019-03-13T03:42:37.265Z,95623.77
2019-03-13T03:45:07.179Z,95625.73
2019-03-13T03:47:33.715Z,95624.78
2019-03-13T03:50:00.157Z,95621.73
2019-03-13T03:52:26.592Z,95621.03
2019-03-13T03:54:53.118Z,95619.31
2019-03-13T03:57:19.558Z,95621.54
2019-03-13T03:59:45.986Z,95620.36
2019-03-13T04:02:12.417Z,95614.40
2019-03-13T04:04:39.058Z,95614.18
2019-03-13T04:07:05.694Z,95618.13
2019-03-13T04:09:32.129Z,95611.11
2019-03-13T04:11:58.563Z,95611.63
2019-03-13T04:14:24.995Z,95607.05
2019-03-13T04:16:51.531Z,95586.67
2019-03-13T04:19:17.964Z,95583.55
2019-03-13T04:21:44.398Z,95565.11
2019-03-13T04:24:12.881Z,95575.25
2019-03-13T04:26:39.417Z,95580.43
2019-03-13T04:29:05.852Z,95576.50
2019-03-13T04:31:32.282Z,95572.36
2019-03-13T04:33:58.720Z,95583.86
2019-03-13T04:36:25.255Z,95580.74
2019-03-13T04:38:51.721Z,95584.70
2019-03-13T04:41:18.222Z,95584.02
2019-03-13T04:43:44.656Z,95589.20
2019-03-13T04:46:11.193Z,95578.97
2019-03-13T04:48:37.623Z,95574.27
2019-03-13T04:51:04.056Z,95569.42
2019-03-13T04:53:30.589Z,95561.98
2019-03-13T04:55:57.231Z,95563.92
2019-03-13T04:58:23.665Z,95560.42
2019-03-13T05:00:50.097Z,95555.25
2019-03-13T05:03:16.514Z,95557.53
2019-03-13T05:05:45.325Z,95561.98
2019-03-13T05:08:18.210Z,95565.14
2019-03-13T05:10:44.638Z,95566.05
2019-03-13T05:13:11.209Z,95569.14
2019-03-13T05:15:37.917Z,95574.74
2019-03-13T05:18:04.454Z,95575.52
2019-03-13T05:20:30.887Z,95579.16
2019-03-13T05:22:57.321Z,95575.88
2019-03-13T05:25:23.854Z,95572.53
2019-03-13T05:27:50.287Z,95571.04
2019-03-13T05:30:16.722Z,95568.54
2019-03-13T05:32:43.569Z,95569.16
2019-03-13T05:35:10.101Z,95572.20
2019-03-13T05:37:36.534Z,95574.69
2019-03-13T05:40:08.608Z,95566.05
2019-03-13T05:42:35.134Z,95567.83
2019-03-13T05:45:01.673Z,95569.16
2019-03-13T05:47:28.104Z,95568.13
2019-03-13T05:49:54.541Z,95561.85
2019-03-13T05:52:21.026Z,95563.81
2019-03-13T05:54:47.713Z,95569.47
2019-03-13T05:57:14.146Z,95569.62
2019-03-13T05:59:40.609Z,95573.02
2019-03-13T06:02:07.014Z,95576.33
2019-03-13T06:04:33.548Z,95578.42
2019-03-13T06:06:59.982Z,95575.97
2019-03-13T06:09:26.523Z,95575.97
2019-03-13T06:11:53.057Z,95575.86
2019-03-13T06:14:19.490Z,95576.98
2019-03-13T06:16:46.027Z,95583.27
2019-03-13T06:19:12.560Z,95577.34
2019-03-13T06:21:39.098Z,95581.97
2019-03-13T06:24:05.734Z,95585.18
2019-03-13T06:26:32.275Z,95586.67
2019-03-13T06:28:58.708Z,95593.39
2019-03-13T06:31:25.241Z,95594.05
2019-03-13T06:33:51.681Z,95598.35
2019-03-13T06:36:18.212Z,95603.10
2019-03-13T06:38:44.644Z,95610.81
2019-03-13T06:41:11.081Z,95615.98
2019-03-13T06:43:37.615Z,95615.41
2019-03-13T06:46:04.151Z,95620.19
2019-03-13T06:48:30.582Z,95617.75
2019-03-13T06:50:57.016Z,95617.41
2019-03-13T06:53:23.447Z,95618.53
2019-03-13T06:55:49.985Z,95618.64
2019-03-13T06:58:18.260Z,95622.77
2019-03-13T07:01:01.694Z,95626.80
2019-03-13T07:03:41.848Z,95631.61
2019-03-13T07:06:26.933Z,95637.17
2019-03-13T07:09:12.156Z,95646.79
2019-03-13T07:11:43.442Z,95645.23
2019-03-13T07:14:20.626Z,95641.43
2019-03-13T07:16:51.975Z,95640.58
2019-03-13T07:19:20.663Z,95643.11
2019-03-13T07:21:54.854Z,95640.03
2019-03-13T07:24:32.178Z,95638.09
2019-03-13T07:27:00.450Z,95643.16
2019-03-13T07:29:28.723Z,95637.17
2019-03-13T07:31:57.000Z,95631.53
2019-03-13T07:34:43.613Z,95635.41
2019-03-13T07:37:12.191Z,95632.73
2019-03-13T07:39:52.540Z,95629.42
2019-03-13T07:42:37.706Z,95634.38
2019-03-13T07:45:11.903Z,95629.95
2019-03-13T07:47:40.219Z,95629.71
2019-03-13T07:50:13.019Z,95636.47
2019-03-13T07:52:41.476Z,95637.62
2019-03-13T07:55:17.030Z,95634.30
2019-03-13T07:57:54.525Z,95638.20
2019-03-13T08:00:39.587Z,95632.91
2019-03-13T08:03:14.248Z,95636.89
2019-03-13T08:05:42.592Z,95642.20
2019-03-13T08:08:17.204Z,95644.21
2019-03-13T08:10:48.884Z,95646.58
2019-03-13T08:13:21.509Z,95642.81
2019-03-13T08:16:05.087Z,95635.50
2019-03-13T08:18:35.924Z,95634.23
2019-03-13T08:21:10.111Z,95635.01
2019-03-13T08:23:50.505Z,95631.00
2019-03-13T08:26:18.982Z,95629.70
2019-03-13T08:28:53.481Z,95628.34
2019-03-13T08:31:21.808Z,95625.27
2019-03-13T08:33:52.276Z,95622.25
2019-03-13T08:36:40.338Z,95620.38
2019-03-13T08:39:10.402Z,95618.91
2019-03-13T08:41:38.729Z,95606.18
2019-03-13T08:44:12.881Z,95604.47
2019-03-13T08:46:59.051Z,95619.05
2019-03-13T08:49:27.337Z,95621.98
2019-03-13T08:51:55.700Z,95624.95
2019-03-13T08:54:33.026Z,95626.41
2019-03-13T08:57:01.379Z,95625.23
2019-03-13T08:59:29.765Z,95620.64
2019-03-13T09:02:01.776Z,95616.08
2019-03-13T09:04:41.876Z,95617.30
2019-03-13T09:07:23.356Z,95619.23
2019-03-13T09:09:52.912Z,95619.73
2019-03-13T09:12:23.827Z,95619.31
2019-03-13T09:15:08.753Z,95618.89
2019-03-13T09:17:43.070Z,95621.27
2019-03-13T09:20:14.267Z,95622.23
2019-03-13T09:22:59.214Z,95616.55
2019-03-13T09:25:36.513Z,95615.83
2019-03-13T09:28:13.587Z,95610.83
2019-03-13T09:31:01.958Z,95622.50
2019-03-13T09:33:40.047Z,95608.35
2019-03-13T09:36:10.923Z,95608.09
2019-03-13T09:38:51.134Z,95605.19
2019-03-13T09:41:25.455Z,95595.74
2019-03-13T09:44:05.361Z,95600.22
2019-03-13T09:46:33.680Z,95596.50
2019-03-13T09:49:14.966Z,95591.33
2019-03-13T09:51:58.399Z,95596.25
2019-03-13T09:54:31.120Z,95596.33
2019-03-13T09:57:02.313Z,95582.34
2019-03-13T09:59:42.686Z,95577.77
2019-03-13T10:02:04.057Z,95578.27
2019-03-13T10:04:41.490Z,95564.55
2019-03-13T10:07:09.765Z,95572.95
2019-03-13T10:09:47.257Z,95564.09
2019-03-13T10:12:15.535Z,95557.84
2019-03-13T10:14:53.133Z,95550.27
2019-03-13T10:17:21.431Z,95553.78
2019-03-13T10:19:52.756Z,95558.59
2019-03-13T10:22:37.826Z,95561.38
2019-03-13T10:25:14.662Z,95570.95
2019-03-13T10:27:58.341Z,95569.36
2019-03-13T10:30:44.948Z,95557.86
2019-03-13T10:33:31.554Z,95566.14
2019-03-13T10:36:01.674Z,95581.36
2019-03-13T10:38:35.743Z,95573.77
2019-03-13T10:41:10.060Z,95563.01
2019-03-13T10:43:41.367Z,95572.34
2019-03-13T10:46:11.576Z,95574.86
2019-03-13T10:48:46.006Z,95561.66
2019-03-13T10:51:20.338Z,95557.00
2019-03-13T10:53:48.594Z,95542.34
2019-03-13T10:56:33.668Z,95551.84
2019-03-13T10:59:20.168Z,95541.66
2019-03-13T11:01:53.233Z,95537.45
2019-03-13T11:04:24.622Z,95532.58
2019-03-13T11:07:02.235Z,95531.40
2019-03-13T11:09:45.887Z,95534.30
2019-03-13T11:12:18.118Z,95528.48
2019-03-13T11:14:49.530Z,95520.33
2019-03-13T11:17:17.839Z,95520.55
2019-03-13T11:19:46.115Z,95510.02
2019-03-13T11:22:17.561Z,95508.12
2019-03-13T11:24:48.801Z,95507.29
2019-03-13T11:27:22.797Z,95515.73
2019-03-13T11:30:00.452Z,95518.71
2019-03-13T11:32:46.105Z,95523.50
2019-03-13T11:35:17.258Z,95522.57
2019-03-13T11:37:45.525Z,95514.98
2019-03-13T11:40:32.850Z,95518.22
2019-03-13T11:43:13.311Z,95509.33
2019-03-13T11:45:56.950Z,95499.12
2019-03-13T11:48:30.920Z,95510.80
2019-03-13T11:51:04.929Z,95505.88
2019-03-13T11:53:31.652Z,95499.02
2019-03-13T11:56:00.093Z,95500.02
2019-03-13T11:58:31.235Z,95519.49
2019-03-13T12:01:17.281Z,95534.70
2019-03-13T12:03:47.551Z,95527.83
2019-03-13T12:06:34.775Z,95522.46
2019-03-13T12:09:19.636Z,95522.59
2019-03-13T12:11:47.925Z,95521.73
2019-03-13T12:14:32.779Z,95508.64
2019-03-13T12:17:09.811Z,95515.35
2019-03-13T12:19:43.834Z,95506.91
2019-03-13T12:22:30.070Z,95502.28
2019-03-13T12:25:04.581Z,95490.97
2019-03-13T12:27:35.879Z,95475.18
2019-03-13T12:30:10.285Z,95467.59
2019-03-13T12:32:47.650Z,95465.09
2019-03-13T12:35:15.927Z,95458.19
2019-03-13T12:37:44.207Z,95454.09
2019-03-13T12:40:15.930Z,95452.69
2019-03-13T12:42:44.246Z,95453.77
2019-03-13T12:45:15.223Z,95439.54
2019-03-13T12:47:49.278Z,95438.95
2019-03-13T12:50:17.571Z,95438.16
2019-03-13T12:52:54.964Z,95431.98
2019-03-13T12:55:29.074Z,95426.56
2019-03-13T12:58:00.118Z,95422.03
2019-03-13T13:00:28.395Z,95421.52
2019-03-13T13:03:14.898Z,95412.17
2019-03-13T13:05:43.176Z,95406.11
2019-03-13T13:08:14.123Z,95401.03
2019-03-13T13:10:59.185Z,95393.31
2019-03-13T13:13:30.370Z,95392.77
2019-03-13T13:16:15.300Z,95386.52
2019-03-13T13:18:50.644Z,95384.84
2019-03-13T13:21:17.078Z,95377.66
2019-03-13T13:23:43.616Z,95383.22
2019-03-13T13:26:11.397Z,95386.73
2019-03-13T13:28:39.165Z,95389.58
2019-03-13T13:31:06.256Z,95389.13
2019-03-13T13:33:32.831Z,95405.05
2019-03-13T13:35:59.367Z,95401.92
2019-03-13T13:38:25.800Z,95417.07
2019-03-13T13:40:52.235Z,95436.02
2019-03-13T13:43:18.703Z,95447.55
2019-03-13T13:45:46.742Z,95474.16
2019-03-13T13:48:13.175Z,95468.54
2019-03-13T13:50:39.611Z,95478.20
2019-03-13T13:53:06.126Z,95496.22
2019-03-13T13:55:32.898Z,95494.66
2019-03-13T13:57:59.424Z,95509.19
2019-03-13T14:00:25.857Z,95512.34
2019-03-13T14:02:52.292Z,95517.59
2019-03-13T14:05:18.829Z,95514.84
2019-03-13T14:07:45.264Z,95517.81
2019-03-13T14:10:12.308Z,95515.19
2019-03-13T14:12:38.743Z,95510.68
2019-03-13T14:15:07.902Z,95515.70
2019-03-13T14:17:34.376Z,95528.74
2019-03-13T14:20:00.809Z,95518.58
2019-03-13T14:22:27.244Z,95520.25
2019-03-13T14:24:53.881Z,95529.42
2019-03-13T14:27:20.421Z,95528.71
2019-03-13T14:29:47.391Z,95522.52
2019-03-13T14:32:14.051Z,95531.83
2019-03-13T14:34:40.643Z,95535.16
2019-03-13T14:37:07.075Z,95539.41
2019-03-13T14:39:33.511Z,95546.69
2019-03-13T14:41:59.945Z,95550.58
2019-03-13T14:44:26.378Z,95541.25
2019-03-13T14:46:52.810Z,95541.78
2019-03-13T14:49:19.249Z,95524.19
2019-03-13T14:51:45.692Z,95517.12
2019-03-13T14:54:12.114Z,95521.39
2019-03-13T14:56:38.751Z,95532.14
2019-03-13T14:59:05.291Z,95530.81
2019-03-13T15:01:33.571Z,95532.39
2019-03-13T15:04:00.000Z,95530.12
2019-03-13T15:06:26.539Z,95534.37
2019-03-13T15:08:54.387Z,95543.64
2019-03-13T15:11:20.998Z,95540.15
2019-03-13T15:13:47.476Z,95538.73
2019-03-13T15:16:14.012Z,95534.60
2019-03-13T15:18:42.088Z,95534.87
2019-03-13T15:21:08.545Z,95537.08
2019-03-13T15:23:34.943Z,95530.42
2019-03-13T15:26:02.002Z,95531.34
2019-03-13T15:28:28.433Z,95530.42
2019-03-13T15:30:55.026Z,95520.59
2019-03-13T15:33:21.516Z,95525.08
2019-03-13T15:35:48.042Z,95526.64
2019-03-13T15:38:14.476Z,95529.88
2019-03-13T15:40:40.913Z,95529.27
2019-03-13T15:43:07.549Z,95529.95
2019-03-13T15:45:34.700Z,95529.98
2019-03-13T15:48:01.258Z,95530.35
2019-03-13T15:50:28.185Z,95534.04
2019-03-13T15:52:54.821Z,95529.97
2019-03-13T15:55:21.665Z,95536.14
2019-03-13T15:57:51.263Z,95532.47
2019-03-13T16:00:26.248Z,95532.86
2019-03-13T16:02:55.515Z,95541.18
2019-03-13T16:05:21.845Z,95547.06
2019-03-13T16:07:48.786Z,95545.98
2019-03-13T16:10:16.244Z,95547.02
2019-03-13T16:12:42.987Z,95548.31
2019-03-13T16:15:21.631Z,95536.95
2019-03-13T16:17:48.145Z,95538.20
2019-03-13T16:20:15.704Z,95539.88
2019-03-13T16:22:44.025Z,95542.60
2019-03-13T16:25:11.337Z,95535.59
2019-03-13T16:27:38.383Z,95536.56
2019-03-13T16:30:16.865Z,95538.53
2019-03-13T16:32:44.317Z,95544.65
2019-03-13T16:35:11.198Z,95552.78
2019-03-13T16:37:37.634Z,95547.65
2019-03-13T16:40:07.457Z,95553.28
2019-03-13T16:42:33.983Z,95545.34
2019-03-13T16:45:00.629Z,95540.80
2019-03-13T16:47:27.055Z,95538.57
2019-03-13T16:49:54.880Z,95541.91
2019-03-13T16:52:21.466Z,95537.66
2019-03-13T16:54:47.997Z,95542.02
2019-03-13T16:57:14.639Z,95530.80
2019-03-13T16:59:41.174Z,95540.91
2019-03-13T17:02:08.669Z,95538.74
2019-03-13T17:04:35.372Z,95530.77
2019-03-13T17:07:02.008Z,95528.39
2019-03-13T17:09:28.547Z,95531.34
2019-03-13T17:11:56.565Z,95533.36
2019-03-13T17:14:23.155Z,95527.75
2019-03-13T17:16:49.592Z,95523.94
2019-03-13T17:19:16.230Z,95517.83
2019-03-13T17:21:42.765Z,95520.69
2019-03-13T17:24:09.181Z,95521.36
2019-03-13T17:26:36.760Z,95524.19
2019-03-13T17:29:03.396Z,95518.14
2019-03-13T17:31:31.684Z,95523.62
2019-03-13T17:33:58.266Z,95526.34
2019-03-13T17:36:24.849Z,95521.23
2019-03-13T17:38:51.391Z,95534.80
2019-03-13T17:41:18.027Z,95538.97
2019-03-13T17:43:44.461Z,95534.36
2019-03-13T17:46:12.787Z,95528.88
2019-03-13T17:48:39.375Z,95534.86
2019-03-13T17:51:06.243Z,95535.10
2019-03-13T17:53:33.063Z,95541.95
2019-03-13T17:55:59.699Z,95547.63
2019-03-13T17:58:26.543Z,95549.50
2019-03-13T18:00:54.663Z,95552.14
2019-03-13T18:03:22.790Z,95551.30
2019-03-13T18:05:49.529Z,95550.67
2019-03-13T18:08:17.745Z,95554.56
2019-03-13T18:10:45.857Z,95555.30
2019-03-13T18:13:14.282Z,95563.69
2019-03-13T18:15:42.289Z,95569.88
2019-03-13T18:18:10.262Z,95574.80
2019-03-13T18:20:38.579Z,95582.72
2019-03-13T18:23:06.447Z,95582.07
2019-03-13T18:25:36.044Z,95585.49
2019-03-13T18:28:05.056Z,95584.09
2019-03-13T18:30:34.862Z,95588.93
2019-03-13T18:33:01.299Z,95581.74
2019-03-13T18:35:27.831Z,95573.56
2019-03-13T18:37:54.471Z,95581.77
2019-03-13T18:40:24.488Z,95582.52
2019-03-13T18:42:51.129Z,95585.46
2019-03-13T18:45:28.521Z,95586.83
2019-03-13T18:47:55.362Z,95592.29
2019-03-13T18:50:22.212Z,95592.19
2019-03-13T18:52:48.846Z,95594.47
2019-03-13T18:55:18.612Z,95588.00
2019-03-13T18:57:45.297Z,95591.85
2019-03-13T19:00:18.281Z,95592.92
2019-03-13T19:02:44.922Z,95587.02
2019-03-13T19:05:12.993Z,95589.48
2019-03-13T19:07:39.534Z,95586.45
2019-03-13T19:10:15.078Z,95592.59
2019-03-13T19:12:41.614Z,95600.05
2019-03-13T19:15:19.441Z,95608.34
2019-03-13T19:17:47.898Z,95609.12
2019-03-13T19:20:22.989Z,95605.45
2019-03-13T19:22:49.984Z,95614.44
2019-03-13T19:25:16.722Z,95615.80
2019-03-13T19:27:43.156Z,95612.47
2019-03-13T19:30:15.912Z,95610.50
2019-03-13T19:32:42.372Z,95603.00
2019-03-13T19:35:09.121Z,95611.00
2019-03-13T19:37:35.647Z,95611.52
2019-03-13T19:40:02.294Z,95615.06
2019-03-13T19:42:28.825Z,95623.14
2019-03-13T19:44:55.363Z,95626.05
2019-03-13T19:47:21.900Z,95622.83
2019-03-13T19:49:48.333Z,95627.51
2019-03-13T19:52:14.765Z,95632.60
2019-03-13T19:54:41.300Z,95631.83
2019-03-13T19:57:07.938Z,95635.48
2019-03-13T19:59:36.873Z,95634.20
2019-03-13T20:02:02.855Z,95639.61
2019-03-13T20:04:30.548Z,95643.69
2019-03-13T20:06:57.257Z,95634.98
2019-03-13T20:09:23.691Z,95644.29
2019-03-13T20:11:50.126Z,95648.17
2019-03-13T20:14:16.660Z,95643.38
2019-03-13T20:16:45.385Z,95655.41
2019-03-13T20:19:11.580Z,95648.84
2019-03-13T20:21:38.013Z,95640.18
2019-03-13T20:24:04.549Z,95655.52
2019-03-13T20:26:31.089Z,95664.72
2019-03-13T20:28:57.523Z,95673.72
2019-03-13T20:31:24.258Z,95690.30
2019-03-13T20:33:50.797Z,95699.23
2019-03-13T20:36:17.256Z,95702.72
2019-03-13T20:38:47.152Z,95710.48
2019-03-13T20:41:12.507Z,95701.41
2019-03-13T20:43:38.992Z,95706.31
2019-03-13T20:46:05.688Z,95710.81
2019-03-13T20:48:32.366Z,95714.61
2019-03-13T20:51:02.671Z,95713.56
2019-03-13T20:53:29.269Z,95712.95
2019-03-13T20:55:58.672Z,95707.72
2019-03-13T20:58:24.349Z,95717.13
2019-03-13T21:00:50.886Z,95703.70
2019-03-13T21:03:17.319Z,95698.41
2019-03-13T21:05:43.857Z,95704.84
2019-03-13T21:08:10.397Z,95704.22
2019-03-13T21:10:36.830Z,95712.97
2019-03-13T21:13:03.306Z,95713.54
2019-03-13T21:15:30.111Z,95709.48
2019-03-13T21:17:56.644Z,95704.80
2019-03-13T21:20:23.384Z,95711.27
2019-03-13T21:22:49.819Z,95712.42
2019-03-13T21:25:19.994Z,95715.05
2019-03-13T21:27:48.023Z,95722.66
2019-03-13T21:30:17.832Z,95721.70
2019-03-13T21:32:44.459Z,95720.03
2019-03-13T21:35:11.097Z,95712.89
2019-03-13T21:37:37.531Z,95712.55
2019-03-13T21:40:06.364Z,95713.80
2019-03-13T21:42:34.085Z,95710.16
2019-03-13T21:45:00.804Z,95706.35
2019-03-13T21:47:27.363Z,95723.42
2019-03-13T21:49:53.797Z,95729.22
2019-03-13T21:52:20.230Z,95717.36
2019-03-13T21:54:46.773Z,95708.14
2019-03-13T21:57:13.407Z,95713.52
2019-03-13T21:59:39.942Z,95713.62
2019-03-13T22:02:06.376Z,95723.28
2019-03-13T22:04:32.813Z,95727.72
2019-03-13T22:06:59.349Z,95708.34
2019-03-13T22:09:25.782Z,95712.23
2019-03-13T22:11:52.213Z,95713.55
2019-03-13T22:14:18.648Z,95702.13
2019-03-13T22:16:45.188Z,95695.41
2019-03-13T22:19:11.721Z,95692.34
2019-03-13T22:21:38.461Z,95693.64
2019-03-13T22:24:06.740Z,95694.23
2019-03-13T22:26:33.278Z,95689.38
2019-03-13T22:28:59.708Z,95692.70
2019-03-13T22:31:26.142Z,95697.69
2019-03-13T22:33:52.986Z,95700.45
2019-03-13T22:36:19.526Z,95702.59
2019-03-13T22:38:45.957Z,95709.50
2019-03-13T22:41:12.390Z,95695.06
2019-03-13T22:43:38.823Z,95700.00
2019-03-13T22:46:05.358Z,95712.72
2019-03-13T22:48:31.819Z,95710.17
2019-03-13T22:51:01.972Z,95709.87
2019-03-13T22:53:27.015Z,95718.39
2019-03-13T22:55:53.619Z,95727.58
2019-03-13T22:58:20.292Z,95725.05
2019-03-13T23:00:54.919Z,95719.72
2019-03-13T23:03:23.239Z,95731.67
2019-03-13T23:05:49.934Z,95734.53
2019-03-13T23:08:16.680Z,95734.78
2019-03-13T23:10:43.422Z,95732.30
2019-03-13T23:13:09.953Z,95727.72
2019-03-13T23:15:36.490Z,95744.67
2019-03-13T23:18:03.025Z,95741.95
2019-03-13T23:20:29.462Z,95747.70
2019-03-13T23:22:56.256Z,95753.64
2019-03-13T23:25:22.940Z,95754.70
2019-03-13T23:27:49.373Z,95762.05
2019-03-13T23:30:17.707Z,95774.12
2019-03-13T23:32:44.186Z,95771.01
2019-03-13T23:35:10.926Z,95769.30
2019-03-13T23:37:37.915Z,95765.65
2019-03-13T23:40:06.090Z,95773.41
2019-03-13T23:42:32.583Z,95779.91
2019-03-13T23:44:59.120Z,95781.62
2019-03-13T23:47:25.551Z,95782.78
2019-03-13T23:49:51.984Z,95786.77
2019-03-13T23:52:18.524Z,95790.31
2019-03-13T23:54:45.058Z,95779.91
2019-03-13T23:57:11.695Z,95793.13
2019-03-13T23:59:38.238Z,95784.01
